createdAt,value
2019-06-26T00:01:01.533Z,4.42
2019-06-26T00:06:08.215Z,4.50
2019-06-26T00:11:14.891Z,4.75
2019-06-26T00:16:21.395Z,4.47
2019-06-26T00:21:27.888Z,5.17
2019-06-26T00:26:34.521Z,5.10
2019-06-26T00:31:41.074Z,4.78
2019-06-26T00:36:48.537Z,4.85
2019-06-26T00:41:55.290Z,4.90
2019-06-26T00:47:01.814Z,4.70
2019-06-26T00:52:08.429Z,5.10
2019-06-26T00:57:15.117Z,5.00
2019-06-26T01:02:22.084Z,5.45
2019-06-26T01:07:28.625Z,4.95
2019-06-26T01:12:35.210Z,5.50
2019-06-26T01:17:41.843Z,5.10
2019-06-26T01:22:48.354Z,5.72
2019-06-26T01:27:55.135Z,5.50
2019-06-26T01:33:01.674Z,5.50
2019-06-26T01:38:08.298Z,5.22
2019-06-26T01:43:14.777Z,5.67
2019-06-26T01:48:21.296Z,6.33
2019-06-26T01:53:27.788Z,5.80
2019-06-26T01:58:34.250Z,6.62
2019-06-26T02:03:40.751Z,6.17
2019-06-26T02:08:47.656Z,7.05
2019-06-26T02:13:54.268Z,7.10
2019-06-26T02:19:03.603Z,6.12
2019-06-26T02:24:10.093Z,6.97
2019-06-26T02:29:16.736Z,7.08
2019-06-26T02:34:23.294Z,6.65
2019-06-26T02:39:29.744Z,7.20
2019-06-26T02:44:52.019Z,7.10
2019-06-26T02:49:44.483Z,6.83
2019-06-26T02:54:52.117Z,6.50
2019-06-26T02:59:58.656Z,6.50
2019-06-26T03:05:05.625Z,7.03
2019-06-26T03:10:13.082Z,7.00
2019-06-26T03:15:19.698Z,5.80
2019-06-26T03:20:30.737Z,6.50
2019-06-26T03:25:37.316Z,6.67
2019-06-26T03:30:43.984Z,6.60
2019-06-26T03:35:50.466Z,6.60
2019-06-26T03:40:57.101Z,6.50
2019-06-26T03:46:03.750Z,6.97
2019-06-26T03:51:13.739Z,6.87
2019-06-26T03:56:18.768Z,6.67
2019-06-26T04:01:25.264Z,6.80
2019-06-26T04:06:31.904Z,5.85
2019-06-26T04:11:38.416Z,6.37
2019-06-26T04:16:45.417Z,5.72
2019-06-26T04:21:52.024Z,5.67
2019-06-26T04:26:59.510Z,5.55
2019-06-26T04:32:06.054Z,5.20
2019-06-26T04:37:12.524Z,5.00
2019-06-26T04:42:19.149Z,4.83
2019-06-26T04:47:25.607Z,5.20
2019-06-26T04:52:32.541Z,4.60
2019-06-26T04:57:39.180Z,4.72
2019-06-26T05:02:45.819Z,4.53
2019-06-26T05:07:53.812Z,4.30
2019-06-26T05:13:00.750Z,4.60
2019-06-26T05:18:07.490Z,4.47
2019-06-26T05:23:14.118Z,4.10
2019-06-26T05:28:20.607Z,4.47
2019-06-26T05:33:27.167Z,4.58
2019-06-26T05:38:33.638Z,4.05
2019-06-26T05:43:40.347Z,3.92
2019-06-26T05:48:46.952Z,4.55
2019-06-26T05:53:53.347Z,4.28
2019-06-26T05:58:59.879Z,4.58
2019-06-26T06:04:06.494Z,3.95
2019-06-26T06:09:13.119Z,4.12
2019-06-26T06:14:19.594Z,4.15
2019-06-26T06:19:26.114Z,4.08
2019-06-26T06:24:32.731Z,3.85
2019-06-26T06:29:39.413Z,3.92
2019-06-26T06:34:45.974Z,3.95
2019-06-26T06:39:52.638Z,4.47
2019-06-26T06:45:02.430Z,4.00
2019-06-26T06:50:09.091Z,3.87
2019-06-26T06:55:15.810Z,3.80
2019-06-26T07:00:23.676Z,3.60
2019-06-26T07:05:30.183Z,4.40
2019-06-26T07:10:36.774Z,3.67
2019-06-26T07:15:43.320Z,4.08
2019-06-26T07:20:50.042Z,4.00
2019-06-26T07:25:56.599Z,3.95
2019-06-26T07:31:03.198Z,4.12
2019-06-26T07:36:09.815Z,4.28
2019-06-26T07:41:16.286Z,4.22
2019-06-26T07:46:22.924Z,4.37
2019-06-26T07:51:29.522Z,4.40
2019-06-26T07:56:36.254Z,4.70
2019-06-26T08:01:42.814Z,4.12
2019-06-26T08:06:49.442Z,4.37
2019-06-26T08:11:56.017Z,3.90
2019-06-26T08:17:02.705Z,4.25
2019-06-26T08:22:09.411Z,3.85
2019-06-26T08:27:15.953Z,3.80
2019-06-26T08:32:25.855Z,3.90
2019-06-26T08:37:30.665Z,3.92
2019-06-26T08:42:45.720Z,4.10
2019-06-26T08:47:52.208Z,4.00
2019-06-26T08:52:58.832Z,3.80
2019-06-26T08:58:05.655Z,3.65
2019-06-26T09:03:12.128Z,3.70
2019-06-26T09:08:19.046Z,3.47
2019-06-26T09:13:25.852Z,3.75
2019-06-26T09:18:35.827Z,3.67
2019-06-26T09:23:40.536Z,3.45
2019-06-26T09:28:47.015Z,3.25
2019-06-26T09:33:53.557Z,3.90
2019-06-26T09:39:00.220Z,3.45
2019-06-26T09:44:07.051Z,3.60
2019-06-26T09:49:13.915Z,3.42
2019-06-26T09:54:20.465Z,2.98
2019-06-26T09:59:26.853Z,3.15
2019-06-26T10:04:33.549Z,3.60
2019-06-26T10:09:40.112Z,3.02
2019-06-26T10:14:48.014Z,2.95
2019-06-26T10:19:55.031Z,3.12
2019-06-26T10:25:01.634Z,3.10
2019-06-26T10:30:10.516Z,3.42
2019-06-26T10:35:18.529Z,3.40
2019-06-26T10:40:25.205Z,3.12
2019-06-26T10:45:35.185Z,3.55
2019-06-26T10:50:49.332Z,3.55
2019-06-26T10:55:48.449Z,4.55
2019-06-26T11:00:55.163Z,3.33
2019-06-26T11:06:01.621Z,3.22
2019-06-26T11:11:08.266Z,3.00
2019-06-26T11:16:14.863Z,3.42
2019-06-26T11:21:21.495Z,4.10
2019-06-26T11:26:28.141Z,3.60
2019-06-26T11:31:34.804Z,3.52
2019-06-26T11:36:41.358Z,3.27
2019-06-26T11:41:47.897Z,3.00
2019-06-26T11:46:55.070Z,2.92
2019-06-26T11:52:01.620Z,3.62
2019-06-26T11:57:08.287Z,3.70
2019-06-26T12:02:14.965Z,3.95
2019-06-26T12:07:22.975Z,3.60
2019-06-26T12:12:29.554Z,3.60
2019-06-26T12:17:36.025Z,3.80
2019-06-26T12:22:42.528Z,3.60
2019-06-26T12:27:49.363Z,3.83
2019-06-26T12:33:02.865Z,3.92
2019-06-26T12:38:04.081Z,3.55
2019-06-26T12:43:10.711Z,3.55
2019-06-26T12:48:17.223Z,3.60
2019-06-26T12:53:24.075Z,3.90
2019-06-26T12:58:30.579Z,3.40
2019-06-26T13:03:37.107Z,3.75
2019-06-26T13:08:43.654Z,3.62
2019-06-26T13:14:01.922Z,3.72
2019-06-26T13:18:58.659Z,3.98
2019-06-26T13:24:05.316Z,3.35
2019-06-26T13:29:11.763Z,3.85
2019-06-26T13:34:18.360Z,3.65
2019-06-26T13:39:24.926Z,3.72
2019-06-26T13:44:31.499Z,3.50
2019-06-26T13:49:38.039Z,3.70
2019-06-26T13:54:44.562Z,3.85
2019-06-26T13:59:51.244Z,3.67
2019-06-26T14:04:58.765Z,3.87
2019-06-26T14:10:05.475Z,3.77
2019-06-26T14:15:13.619Z,3.60
2019-06-26T14:20:21.253Z,4.05
2019-06-26T14:25:28.027Z,4.05
2019-06-26T14:30:34.655Z,3.60
2019-06-26T14:35:41.282Z,3.55
2019-06-26T14:40:47.867Z,3.87
2019-06-26T14:45:54.461Z,3.60
2019-06-26T14:51:00.980Z,4.50
2019-06-26T14:56:07.630Z,4.42
2019-06-26T15:01:14.294Z,4.70
2019-06-26T15:06:20.923Z,4.28
2019-06-26T15:11:27.498Z,4.37
2019-06-26T15:16:34.136Z,4.58
2019-06-26T15:21:48.661Z,4.40
2019-06-26T15:26:49.102Z,4.42
2019-06-26T15:31:55.582Z,4.25
2019-06-26T15:37:02.141Z,4.30
2019-06-26T15:42:08.778Z,4.60
2019-06-26T15:47:15.561Z,4.17
2019-06-26T15:52:22.141Z,4.50
2019-06-26T15:57:28.623Z,4.12
2019-06-26T16:02:43.243Z,4.40
2019-06-26T16:07:50.031Z,4.70
2019-06-26T16:12:56.789Z,3.35
2019-06-26T16:18:09.004Z,4.45
2019-06-26T16:23:15.739Z,4.58
2019-06-26T16:28:22.597Z,4.47
2019-06-26T16:33:29.227Z,4.30
2019-06-26T16:38:35.876Z,4.20
2019-06-26T16:43:42.587Z,4.42
2019-06-26T16:48:49.133Z,4.50
2019-06-26T16:53:55.913Z,4.50
2019-06-26T16:59:02.610Z,4.45
2019-06-26T17:04:09.124Z,3.95
2019-06-26T17:09:15.739Z,4.75
2019-06-26T17:14:22.330Z,4.62
2019-06-26T17:19:28.886Z,4.42
2019-06-26T17:24:36.467Z,4.30
2019-06-26T17:29:43.252Z,5.10
2019-06-26T17:34:49.828Z,4.33
2019-06-26T17:39:56.431Z,4.08
2019-06-26T17:45:03.041Z,5.05
2019-06-26T17:50:10.443Z,5.00
2019-06-26T17:55:17.287Z,4.78
2019-06-26T18:00:29.169Z,4.60
2019-06-26T18:05:35.798Z,5.30
2019-06-26T18:10:43.358Z,5.12
2019-06-26T18:15:49.917Z,4.83
2019-06-26T18:20:56.364Z,5.35
2019-06-26T18:26:13.166Z,5.08
2019-06-26T18:31:11.460Z,5.33
2019-06-26T18:36:18.015Z,5.17
2019-06-26T18:41:26.396Z,5.30
2019-06-26T18:46:33.072Z,5.70
2019-06-26T18:51:39.765Z,5.95
2019-06-26T18:56:47.511Z,5.67
2019-06-26T19:01:56.129Z,5.83
2019-06-26T19:07:02.744Z,6.12
2019-06-26T19:12:10.447Z,6.15
2019-06-26T19:17:17.340Z,6.28
2019-06-26T19:22:26.662Z,7.40
2019-06-26T19:27:34.292Z,6.03
2019-06-26T19:32:40.864Z,6.15
2019-06-26T19:37:49.986Z,7.22
2019-06-26T19:42:56.573Z,6.60
2019-06-26T19:48:06.606Z,6.40
2019-06-26T19:53:13.254Z,6.40
2019-06-26T19:58:26.297Z,5.30
2019-06-26T20:03:28.165Z,6.15
2019-06-26T20:08:34.639Z,5.83
2019-06-26T20:13:41.182Z,6.30
2019-06-26T20:18:47.752Z,6.55
2019-06-26T20:23:54.331Z,6.17
2019-06-26T20:29:00.989Z,6.12
2019-06-26T20:34:07.622Z,5.62
2019-06-26T20:39:14.110Z,6.72
2019-06-26T20:44:20.736Z,5.92
2019-06-26T20:49:27.266Z,6.87
2019-06-26T20:54:33.692Z,6.28
2019-06-26T20:59:40.288Z,5.90
2019-06-26T21:04:46.860Z,6.47
2019-06-26T21:09:54.488Z,6.33
2019-06-26T21:15:00.907Z,6.80
2019-06-26T21:20:09.137Z,6.12
2019-06-26T21:25:18.991Z,6.33
2019-06-26T21:30:27.219Z,6.42
2019-06-26T21:35:33.779Z,6.28
2019-06-26T21:40:40.268Z,5.55
2019-06-26T21:45:48.043Z,6.03
2019-06-26T21:50:54.686Z,5.55
2019-06-26T21:56:01.170Z,5.33
2019-06-26T22:01:25.443Z,4.42
2019-06-26T22:06:50.233Z,4.40
2019-06-26T22:12:14.463Z,4.45
2019-06-26T22:17:37.855Z,4.30
2019-06-26T22:22:44.937Z,4.70
2019-06-26T22:27:51.510Z,4.10
2019-06-26T22:32:58.117Z,4.10
2019-06-26T22:38:04.837Z,3.65
2019-06-26T22:43:11.527Z,4.55
2019-06-26T22:48:18.217Z,4.83
2019-06-26T22:53:24.805Z,4.92
2019-06-26T22:58:31.275Z,4.28
2019-06-26T23:03:37.880Z,4.67
2019-06-26T23:08:44.360Z,4.70
2019-06-26T23:13:51.025Z,4.72
2019-06-26T23:18:57.579Z,4.40
2019-06-26T23:24:04.079Z,4.67
2019-06-26T23:29:10.622Z,4.35
2019-06-26T23:34:17.297Z,4.42
2019-06-26T23:39:23.954Z,4.70
2019-06-26T23:44:30.454Z,4.50
2019-06-26T23:49:37.179Z,4.78
2019-06-26T23:54:43.603Z,5.00
2019-06-26T23:59:50.076Z,4.70
